createdAt,value
2018-04-22T00:02:05.125Z,9.40
2018-04-22T00:06:56.012Z,9.40
2018-04-22T00:11:46.900Z,9.30
2018-04-22T00:16:37.806Z,9.20
2018-04-22T00:21:28.722Z,9.20
2018-04-22T00:26:19.631Z,9.10
2018-04-22T00:31:10.570Z,9.00
2018-04-22T00:36:01.490Z,9.00
2018-04-22T00:40:52.409Z,8.90
2018-04-22T00:45:43.295Z,8.80
2018-04-22T00:50:34.193Z,8.80
2018-04-22T00:55:25.828Z,8.60
2018-04-22T01:00:17.455Z,8.60
2018-04-22T01:05:08.336Z,8.60
2018-04-22T01:09:59.225Z,8.50
2018-04-22T01:14:50.123Z,8.50
2018-04-22T01:19:41.759Z,8.30
2018-04-22T01:24:33.455Z,8.30
2018-04-22T01:29:24.339Z,8.30
2018-04-22T01:34:15.235Z,8.20
2018-04-22T01:39:06.863Z,8.10
2018-04-22T01:43:58.484Z,8.00
2018-04-22T01:48:49.367Z,8.00
2018-04-22T01:53:40.243Z,8.00
2018-04-22T01:58:31.875Z,7.90
2018-04-22T02:03:23.504Z,7.80
2018-04-22T02:08:14.400Z,7.70
2018-04-22T02:13:05.279Z,7.70
2018-04-22T02:17:57.244Z,7.70
2018-04-22T02:22:48.163Z,7.60
2018-04-22T02:27:39.099Z,7.50
2018-04-22T02:32:29.988Z,7.50
2018-04-22T02:37:21.652Z,7.40
2018-04-22T02:42:12.540Z,7.40
2018-04-22T02:47:04.235Z,7.30
2018-04-22T02:51:55.124Z,7.30
2018-04-22T02:56:46.069Z,7.30
2018-04-22T03:01:36.960Z,7.20
2018-04-22T03:06:27.847Z,7.20
2018-04-22T03:11:19.479Z,7.10
2018-04-22T03:16:11.115Z,7.00
2018-04-22T03:21:02.748Z,7.00
2018-04-22T03:25:54.454Z,7.00
2018-04-22T03:30:45.336Z,7.00
2018-04-22T03:35:36.224Z,6.90
2018-04-22T03:40:27.909Z,6.80
2018-04-22T03:45:18.792Z,6.80
2018-04-22T03:50:09.676Z,6.80
2018-04-22T03:55:00.559Z,6.80
2018-04-22T03:59:51.440Z,6.70
2018-04-22T04:04:43.068Z,6.70
2018-04-22T04:09:34.744Z,6.60
2018-04-22T04:14:25.632Z,6.60
2018-04-22T04:19:28.884Z,6.60
2018-04-22T04:29:43.901Z,6.50
2018-04-22T04:34:34.808Z,6.50
2018-04-22T04:39:25.703Z,6.60
2018-04-22T04:44:16.600Z,6.50
2018-04-22T04:49:08.227Z,6.60
2018-04-22T04:53:59.866Z,6.60
2018-04-22T04:58:51.661Z,6.60
2018-04-22T05:03:42.575Z,6.60
2018-04-22T05:08:33.467Z,6.70
2018-04-22T05:13:24.356Z,6.80
2018-04-22T05:18:16.011Z,6.90
2018-04-22T05:23:06.895Z,6.90
2018-04-22T05:27:57.784Z,7.00
2018-04-22T05:32:48.668Z,7.10
2018-04-22T05:37:39.620Z,7.20
2018-04-22T05:42:30.508Z,7.30
2018-04-22T05:47:21.491Z,7.40
2018-04-22T05:52:12.375Z,7.60
2018-04-22T05:57:03.259Z,7.70
2018-04-22T06:01:54.939Z,8.10
2018-04-22T06:06:45.818Z,8.10
2018-04-22T06:11:36.707Z,8.40
2018-04-22T06:16:27.597Z,8.60
2018-04-22T06:21:18.511Z,8.90
2018-04-22T06:26:09.407Z,9.20
2018-04-22T06:31:00.295Z,9.50
2018-04-22T06:35:51.984Z,10.10
2018-04-22T06:40:42.868Z,10.10
2018-04-22T06:45:33.816Z,10.50
2018-04-22T06:50:24.713Z,10.80
2018-04-22T06:55:15.643Z,11.20
2018-04-22T07:00:06.530Z,11.50
2018-04-22T07:04:58.203Z,12.20
2018-04-22T07:09:49.092Z,12.10
2018-04-22T07:14:39.975Z,12.50
2018-04-22T07:19:30.855Z,12.90
2018-04-22T07:24:21.740Z,13.20
2018-04-22T07:29:12.647Z,13.60
2018-04-22T07:34:04.330Z,14.10
2018-04-22T07:38:55.264Z,14.10
2018-04-22T07:43:46.148Z,14.40
2018-04-22T07:48:37.080Z,14.60
2018-04-22T07:53:27.975Z,14.80
2018-04-22T07:58:18.869Z,15.00
2018-04-22T08:03:10.491Z,15.30
2018-04-22T08:08:02.907Z,15.40
2018-04-22T08:12:53.828Z,15.40
2018-04-22T08:17:44.720Z,15.60
2018-04-22T08:22:35.639Z,15.80
2018-04-22T08:27:26.575Z,16.00
2018-04-22T08:32:17.507Z,16.20
2018-04-22T08:37:08.423Z,16.30
2018-04-22T08:41:59.355Z,16.50
2018-04-22T08:46:50.263Z,16.70
2018-04-22T08:51:41.146Z,16.90
2018-04-22T08:56:32.040Z,17.10
2018-04-22T09:01:23.687Z,17.50
2018-04-22T09:06:15.367Z,17.60
2018-04-22T09:11:06.251Z,17.60
2018-04-22T09:15:57.139Z,17.80
2018-04-22T09:20:48.028Z,17.90
2018-04-22T09:25:38.942Z,18.00
2018-04-22T09:30:29.835Z,18.20
2018-04-22T09:35:20.735Z,18.30
2018-04-22T09:40:12.419Z,18.50
2018-04-22T09:45:03.315Z,18.50
2018-04-22T09:49:54.219Z,18.60
2018-04-22T09:54:45.172Z,18.80
2018-04-22T09:59:36.244Z,18.90
2018-04-22T10:04:27.881Z,19.20
2018-04-22T10:09:19.508Z,19.40
2018-04-22T10:14:11.132Z,19.50
2018-04-22T10:19:02.763Z,19.80
2018-04-22T10:23:53.659Z,19.70
2018-04-22T10:28:44.554Z,20.00
2018-04-22T10:33:35.452Z,20.20
2018-04-22T10:38:26.348Z,20.40
2018-04-22T10:43:17.987Z,20.80
2018-04-22T10:48:09.607Z,21.00
2018-04-22T10:53:00.488Z,21.00
2018-04-22T10:57:51.451Z,21.30
2018-04-22T11:02:42.288Z,21.60
2018-04-22T11:07:33.183Z,21.90
2018-04-22T11:12:24.075Z,22.30
2018-04-22T11:17:14.975Z,22.70
2018-04-22T11:22:05.877Z,23.10
2018-04-22T11:26:56.776Z,23.50
2018-04-22T11:31:47.671Z,24.00
2018-04-22T11:36:38.563Z,24.40
2018-04-22T11:41:29.471Z,25.00
2018-04-22T11:46:20.360Z,25.50
2018-04-22T11:51:11.247Z,26.00
2018-04-22T11:56:02.891Z,27.10
2018-04-22T12:00:54.537Z,27.50
2018-04-22T12:05:45.427Z,27.50
2018-04-22T12:10:37.084Z,28.40
2018-04-22T12:15:28.712Z,28.90
2018-04-22T12:20:20.352Z,29.30
2018-04-22T12:25:11.984Z,29.70
2018-04-22T12:30:03.615Z,30.00
2018-04-22T12:34:55.242Z,30.30
2018-04-22T12:39:46.166Z,30.20
2018-04-22T12:44:37.791Z,30.40
2018-04-22T12:49:28.675Z,30.40
2018-04-22T12:54:20.330Z,30.20
2018-04-22T12:59:11.241Z,30.20
2018-04-22T13:04:02.136Z,30.10
2018-04-22T13:08:53.080Z,29.90
2018-04-22T13:13:43.969Z,29.70
2018-04-22T13:18:34.881Z,29.50
2018-04-22T13:23:25.774Z,29.20
2018-04-22T13:28:17.600Z,28.60
2018-04-22T13:33:08.502Z,28.50
2018-04-22T13:37:59.508Z,28.30
2018-04-22T13:42:50.400Z,28.10
2018-04-22T13:47:41.295Z,27.90
2018-04-22T13:52:32.927Z,27.50
2018-04-22T13:57:24.559Z,27.30
2018-04-22T14:02:16.195Z,27.10
2018-04-22T14:07:07.822Z,26.80
2018-04-22T14:11:59.460Z,26.60
2018-04-22T14:16:51.088Z,26.50
2018-04-22T14:21:41.977Z,26.40
2018-04-22T14:26:32.883Z,26.30
2018-04-22T14:31:23.768Z,26.20
2018-04-22T14:36:14.655Z,26.10
2018-04-22T14:41:05.547Z,26.10
2018-04-22T14:46:03.599Z,26.20
2018-04-22T14:50:54.508Z,26.30
2018-04-22T14:55:45.402Z,26.30
2018-04-22T15:00:37.032Z,26.40
2018-04-22T15:05:27.943Z,26.40
2018-04-22T15:10:18.835Z,26.50
2018-04-22T15:15:09.722Z,26.60
2018-04-22T15:20:00.615Z,26.70
2018-04-22T15:24:52.247Z,26.80
2018-04-22T15:29:43.885Z,26.90
2018-04-22T15:34:35.531Z,26.90
2018-04-22T15:39:26.440Z,26.80
2018-04-22T15:44:18.123Z,26.80
2018-04-22T15:49:09.021Z,26.80
2018-04-22T15:53:59.899Z,26.70
2018-04-22T15:58:51.604Z,26.40
2018-04-22T16:03:42.495Z,26.40
2018-04-22T16:08:33.404Z,26.30
2018-04-22T16:13:24.348Z,26.10
2018-04-22T16:18:15.237Z,26.00
2018-04-22T16:23:06.133Z,25.80
2018-04-22T16:27:57.764Z,25.40
2018-04-22T16:32:48.659Z,25.40
2018-04-22T16:37:39.583Z,25.20
2018-04-22T16:42:30.471Z,25.00
2018-04-22T16:47:21.356Z,24.80
2018-04-22T16:52:13.035Z,24.40
2018-04-22T16:57:03.920Z,24.30
2018-04-22T17:01:54.905Z,24.20
2018-04-22T17:06:45.895Z,24.00
2018-04-22T17:11:36.812Z,23.80
2018-04-22T17:16:27.730Z,23.60
2018-04-22T17:21:18.616Z,23.40
2018-04-22T17:26:09.641Z,23.30
2018-04-22T17:31:00.535Z,23.10
2018-04-22T17:35:52.165Z,22.80
2018-04-22T17:40:43.808Z,22.60
2018-04-22T17:45:35.435Z,22.40
2018-04-22T17:50:27.059Z,22.20
2018-04-22T17:55:17.947Z,22.20
2018-04-22T18:00:08.834Z,22.00
2018-04-22T18:04:59.712Z,21.80
2018-04-22T18:09:50.589Z,21.60
2018-04-22T18:14:41.505Z,21.40
2018-04-22T18:24:50.192Z,20.90
2018-04-22T18:29:41.079Z,20.70
2018-04-22T18:34:31.972Z,20.50
2018-04-22T18:39:23.612Z,20.10
2018-04-22T18:44:15.232Z,19.90
2018-04-22T18:49:06.987Z,19.70
2018-04-22T18:53:57.991Z,19.70
2018-04-22T18:58:49.801Z,19.30
2018-04-22T19:03:40.700Z,19.30
2018-04-22T19:08:31.623Z,19.10
2018-04-22T19:13:22.547Z,19.00
2018-04-22T19:18:13.431Z,18.90
2018-04-22T19:23:04.424Z,18.70
2018-04-22T19:27:55.272Z,18.60
2018-04-22T19:32:46.143Z,18.40
2018-04-22T19:37:37.024Z,18.30
2018-04-22T19:42:27.951Z,18.20
2018-04-22T19:47:18.836Z,18.10
2018-04-22T19:52:09.723Z,18.00
2018-04-22T19:57:01.363Z,17.80
2018-04-22T20:01:53.023Z,17.80
2018-04-22T20:06:43.912Z,17.80
2018-04-22T20:11:34.802Z,17.70
2018-04-22T20:16:25.708Z,17.70
2018-04-22T20:21:16.595Z,17.60
2018-04-22T20:26:07.500Z,17.60
2018-04-22T20:30:59.131Z,17.50
2018-04-22T20:35:50.755Z,17.50
2018-04-22T20:40:41.644Z,17.50
2018-04-22T20:45:32.532Z,17.50
2018-04-22T20:50:23.407Z,17.40
2018-04-22T20:55:14.287Z,17.40
2018-04-22T21:00:05.165Z,17.40
2018-04-22T21:04:56.783Z,17.40
2018-04-22T21:09:47.671Z,17.40
2018-04-22T21:14:38.567Z,17.40
2018-04-22T21:19:29.441Z,17.40
2018-04-22T21:24:21.064Z,17.50
2018-04-22T21:29:11.938Z,17.50
2018-04-22T21:34:02.811Z,17.60
2018-04-22T21:38:54.503Z,17.60
2018-04-22T21:43:45.378Z,17.60
2018-04-22T21:48:37.054Z,17.60
2018-04-22T21:53:27.954Z,17.60
2018-04-22T21:58:18.890Z,17.60
2018-04-22T22:03:09.781Z,17.70
2018-04-22T22:08:01.421Z,17.70
2018-04-22T22:12:52.328Z,17.60
2018-04-22T22:17:43.239Z,17.70
2018-04-22T22:22:34.880Z,17.80
2018-04-22T22:27:26.521Z,17.80
2018-04-22T22:32:18.147Z,17.80
2018-04-22T22:37:09.783Z,17.90
2018-04-22T22:42:01.421Z,17.90
2018-04-22T22:46:53.057Z,17.90
2018-04-22T22:51:44.674Z,17.80
2018-04-22T22:56:35.561Z,17.80
2018-04-22T23:01:26.435Z,17.80
2018-04-22T23:06:17.391Z,17.70
2018-04-22T23:11:08.277Z,17.60
2018-04-22T23:15:59.160Z,17.50
2018-04-22T23:20:50.159Z,17.40
2018-04-22T23:25:41.034Z,17.40
2018-04-22T23:30:31.913Z,17.30
2018-04-22T23:35:22.792Z,17.20
2018-04-22T23:40:13.684Z,17.20
2018-04-22T23:45:05.334Z,17.10
2018-04-22T23:49:56.295Z,17.10
2018-04-22T23:54:47.183Z,17.00
2018-04-22T23:59:38.081Z,17.00
